Time;durP1;ratioP1;P1;durP2;ratioP2;P2;SDS_P1;SDS_P2;PMS_P1;PMS_P2;Temp;Humidity;BMP_temperature;BMP_pressure;BME280_temperature;BME280_humidity;BME280_pressure;Samples;Min_cycle;Max_cycle;Signal;HPM_P1;HPM_P2
2021/07/17 00:00:41;;;;;;;12.02;4.53;;;;;;;22.25;54.74;102727.69;5059591;28;20032;-85
2021/07/17 00:03:06;;;;;;;12.50;4.82;;;;;;;22.26;54.63;102727.72;5093110;28;20060;-85
2021/07/17 00:05:32;;;;;;;10.23;5.10;;;;;;;22.27;54.65;102725.97;5076178;28;20035;-85
2021/07/17 00:07:58;;;;;;;12.18;5.05;;;;;;;22.29;54.69;102732.94;5093008;28;20032;-85
2021/07/17 00:10:28;;;;;;;15.93;5.10;;;;;;;22.25;54.67;102736.44;5076048;28;20032;-85
2021/07/17 00:12:54;;;;;;;12.10;5.28;;;;;;;22.27;54.43;102726.81;5092831;28;20020;-85
2021/07/17 00:15:25;;;;;;;11.15;5.10;;;;;;;22.28;54.74;102732.97;5059302;28;20028;-85
2021/07/17 00:17:51;;;;;;;13.93;4.85;;;;;;;22.27;54.82;102729.44;5092808;28;20020;-85
2021/07/17 00:20:16;;;;;;;13.40;4.50;;;;;;;22.28;54.61;102723.34;5075792;28;20058;-84
2021/07/17 00:22:42;;;;;;;13.00;4.72;;;;;;;22.29;54.44;102724.22;5093285;28;20020;-85
2021/07/17 00:25:15;;;;;;;12.68;5.28;;;;;;;22.27;54.71;102721.56;5076526;28;20035;-86
2021/07/17 00:27:41;;;;;;;13.38;4.60;;;;;;;22.26;54.65;102725.09;5093003;28;20032;-86
2021/07/17 00:30:07;;;;;;;13.05;4.55;;;;;;;22.27;54.72;102724.19;5076251;28;20106;-86
2021/07/17 00:32:33;;;;;;;11.30;4.85;;;;;;;22.28;54.93;102717.22;5076948;28;20032;-87
2021/07/17 00:34:58;;;;;;;11.15;5.10;;;;;;;22.25;54.75;102718.06;5094718;28;20458;-86
2021/07/17 00:37:24;;;;;;;12.10;5.00;;;;;;;22.23;55.07;102714.59;5078979;28;20036;-86
2021/07/17 00:39:49;;;;;;;13.52;5.07;;;;;;;22.24;54.73;102718.97;5080384;28;20031;-85
2021/07/17 00:42:15;;;;;;;13.65;5.03;;;;;;;22.25;55.00;102714.59;5065254;28;20034;-86
2021/07/17 00:44:40;;;;;;;12.07;4.78;;;;;;;22.23;55.19;102722.44;5064695;28;20497;-86
2021/07/17 00:47:07;;;;;;;14.43;4.95;;;;;;;22.23;55.08;102724.19;5081244;28;20123;-86
2021/07/17 00:49:32;;;;;;;13.27;5.07;;;;;;;22.24;55.04;102724.22;5081900;28;20077;-86
2021/07/17 00:51:58;;;;;;;11.93;4.95;;;;;;;22.22;55.09;102712.84;5083695;28;20032;-87
2021/07/17 00:54:25;;;;;;;13.15;5.00;;;;;;;22.24;55.27;102720.72;5081731;28;20077;-86
2021/07/17 00:56:52;;;;;;;12.57;4.88;;;;;;;22.25;54.95;102725.94;5081163;28;20385;-86
2021/07/17 00:59:21;;;;;;;10.73;4.32;;;;;;;22.25;54.97;102725.09;5079224;28;20032;-86
2021/07/17 01:01:50;;;;;;;13.82;5.00;;;;;;;22.25;55.09;102727.69;5094493;28;20028;-86
2021/07/17 01:04:16;;;;;;;10.75;4.65;;;;;;;22.24;55.03;102731.22;5098175;28;20020;-86
2021/07/17 01:06:42;;;;;;;12.32;4.78;;;;;;;22.23;54.93;102729.44;5076964;28;20535;-86
2021/07/17 01:09:08;;;;;;;12.00;5.15;;;;;;;22.23;55.03;102732.06;5093982;28;20430;-86
2021/07/17 01:11:33;;;;;;;11.50;4.78;;;;;;;22.21;55.07;102732.06;5092966;28;20051;-86
2021/07/17 01:13:58;;;;;;;11.23;4.57;;;;;;;22.22;55.08;102732.94;5067328;28;20024;-86
2021/07/17 01:16:24;;;;;;;13.80;4.97;;;;;;;22.20;55.25;102730.28;5095785;28;20039;-86
2021/07/17 01:18:50;;;;;;;11.00;4.32;;;;;;;22.16;55.20;102734.66;5089712;28;20028;-87
2021/07/17 01:21:17;;;;;;;13.63;4.55;;;;;;;22.19;55.24;102729.44;5088546;28;20021;-86
2021/07/17 01:23:44;;;;;;;12.05;4.63;;;;;;;22.19;55.15;102724.19;5080505;28;20032;-86
2021/07/17 01:26:11;;;;;;;10.65;4.68;;;;;;;22.16;55.18;102737.28;5080108;28;20024;-86
2021/07/17 01:28:38;;;;;;;11.93;4.40;;;;;;;22.17;55.17;102725.94;5096611;28;20043;-86
2021/07/17 01:31:04;;;;;;;13.48;4.85;;;;;;;22.17;54.85;102727.69;5079429;28;20048;-87
2021/07/17 01:33:29;;;;;;;10.80;4.28;;;;;;;22.15;54.98;102738.16;5079393;28;20033;-86
2021/07/17 01:35:54;;;;;;;11.55;4.72;;;;;;;22.16;55.10;102724.16;5079293;28;20024;-86
2021/07/17 01:38:20;;;;;;;11.77;4.85;;;;;;;22.20;54.98;102727.66;5062205;28;20382;-86
2021/07/17 01:40:49;;;;;;;10.90;4.35;;;;;;;22.18;54.85;102722.41;5078992;28;20034;-86
2021/07/17 01:43:15;;;;;;;9.55;4.90;;;;;;;22.17;55.17;102725.94;5078955;28;20035;-84
2021/07/17 01:45:40;;;;;;;12.73;4.85;;;;;;;22.16;55.13;102720.66;5096096;28;20378;-85
2021/07/17 01:48:08;;;;;;;12.70;4.65;;;;;;;22.15;55.09;102722.44;5078695;28;20207;-85
2021/07/17 01:50:36;;;;;;;10.80;4.47;;;;;;;22.13;55.34;102721.53;5078784;28;20024;-85
2021/07/17 01:53:02;;;;;;;9.23;4.57;;;;;;;22.18;55.04;102724.16;5095547;28;20455;-86
2021/07/17 01:55:27;;;;;;;10.38;4.70;;;;;;;22.20;54.88;102717.19;5062171;28;20096;-86
2021/07/17 01:57:53;;;;;;;11.15;4.57;;;;;;;22.17;54.84;102712.81;5078821;28;20477;-86
2021/07/17 02:00:20;;;;;;;10.15;4.38;;;;;;;22.18;54.81;102714.53;5095334;28;20032;-87
2021/07/17 02:02:47;;;;;;;9.98;4.35;;;;;;;22.18;54.80;102713.69;5061955;28;20020;-86
2021/07/17 02:05:14;;;;;;;9.38;4.38;;;;;;;22.16;55.10;102710.19;5078759;28;20470;-86
2021/07/17 02:07:39;;;;;;;12.60;4.75;;;;;;;22.17;55.11;102710.19;5078647;28;20032;-86
2021/07/17 02:10:14;;;;;;;10.27;4.20;;;;;;;22.16;55.13;102713.66;5095357;28;20087;-87
2021/07/17 02:13:01;;;;;;;11.85;4.18;;;;;;;22.14;55.11;102711.91;5095134;28;20034;-87
2021/07/17 02:15:29;;;;;;;11.93;4.82;;;;;;;22.10;54.96;102707.53;5096497;28;20027;-86
2021/07/17 02:17:55;;;;;;;9.80;4.15;;;;;;;22.10;55.18;102715.41;5096679;28;20071;-86
2021/07/17 02:20:21;;;;;;;8.57;4.70;;;;;;;22.12;54.92;102705.81;5095205;28;20107;-86
2021/07/17 02:22:46;;;;;;;9.88;3.88;;;;;;;22.12;54.81;102711.94;5094917;28;20052;-87
2021/07/17 02:25:12;;;;;;;11.65;4.45;;;;;;;22.17;54.62;102704.09;5061634;28;20028;-86
2021/07/17 02:27:37;;;;;;;12.55;4.47;;;;;;;22.15;54.81;102698.81;5078209;28;20036;-85
2021/07/17 02:30:07;;;;;;;9.55;4.13;;;;;;;22.10;55.06;102703.19;5094801;28;20509;-85
2021/07/17 02:32:32;;;;;;;11.13;4.43;;;;;;;22.11;55.17;102696.19;5077952;28;20024;-85
2021/07/17 02:34:58;;;;;;;8.95;4.13;;;;;;;22.12;54.82;102696.22;5076471;28;20028;-85
2021/07/17 02:37:23;;;;;;;8.25;4.28;;;;;;;22.14;54.96;102704.94;5077961;28;20111;-84
2021/07/17 02:39:50;;;;;;;8.88;4.35;;;;;;;22.16;54.66;102710.19;5077850;28;20039;-85
2021/07/17 02:42:16;;;;;;;10.23;4.40;;;;;;;22.10;54.97;102712.78;5078036;28;20386;-85
2021/07/17 02:44:41;;;;;;;10.75;4.30;;;;;;;22.11;54.94;102715.41;5095691;28;20031;-84
2021/07/17 02:47:07;;;;;;;8.23;4.13;;;;;;;22.13;54.95;102710.19;5061133;28;20106;-85
2021/07/17 02:49:32;;;;;;;8.85;4.15;;;;;;;22.06;54.92;102713.66;5077693;28;20081;-84
2021/07/17 02:51:58;;;;;;;9.73;4.55;;;;;;;22.07;55.04;102720.66;5061009;28;20089;-85
2021/07/17 02:54:23;;;;;;;9.43;4.07;;;;;;;22.08;55.20;102714.53;5077487;28;20024;-85
2021/07/17 02:56:49;;;;;;;10.40;4.13;;;;;;;22.07;54.87;102708.44;5077855;28;20056;-85
2021/07/17 02:59:15;;;;;;;10.32;4.38;;;;;;;22.07;55.15;102718.03;5077467;28;20055;-85
2021/07/17 03:01:40;;;;;;;9.15;3.88;;;;;;;22.05;55.23;102720.66;5095782;28;20515;-85
2021/07/17 03:04:06;;;;;;;10.07;4.22;;;;;;;22.05;54.88;102715.41;5094386;28;20020;-84
2021/07/17 03:06:31;;;;;;;9.40;4.50;;;;;;;22.06;54.94;102711.94;5060601;28;20081;-85
2021/07/17 03:08:57;;;;;;;10.15;4.32;;;;;;;22.04;54.98;102723.28;5077252;28;20024;-85
2021/07/17 03:11:22;;;;;;;11.43;4.47;;;;;;;22.04;55.08;102728.53;5094015;28;20027;-85
2021/07/17 03:13:49;;;;;;;9.93;4.20;;;;;;;22.01;55.25;102725.91;5060537;28;20035;-86
2021/07/17 03:16:15;;;;;;;10.13;4.00;;;;;;;22.02;54.92;102720.66;5094002;28;20385;-85
2021/07/17 03:18:42;;;;;;;8.75;3.92;;;;;;;22.04;55.05;102718.91;5077108;28;20039;-85
2021/07/17 03:21:07;;;;;;;10.25;4.40;;;;;;;22.04;55.15;102718.91;5060359;28;20382;-85
2021/07/17 03:23:32;;;;;;;10.60;4.07;;;;;;;22.07;55.04;102712.81;5076763;28;20178;-84
2021/07/17 03:25:58;;;;;;;9.75;3.90;;;;;;;22.05;55.12;102720.66;5060291;28;20031;-84
2021/07/17 03:28:23;;;;;;;10.40;3.97;;;;;;;22.02;55.24;102707.56;5060147;28;20024;-85
2021/07/17 03:30:48;;;;;;;7.30;3.58;;;;;;;22.03;54.97;102713.66;5059786;28;20047;-85
2021/07/17 03:33:14;;;;;;;9.38;4.00;;;;;;;22.04;54.83;102708.44;5076907;28;20043;-84
2021/07/17 03:35:40;;;;;;;9.93;4.38;;;;;;;22.05;54.89;102704.94;5076868;28;20032;-85
2021/07/17 03:38:05;;;;;;;8.80;3.80;;;;;;;22.02;54.87;102710.19;5059931;28;20020;-85
2021/07/17 03:40:30;;;;;;;10.15;3.67;;;;;;;22.01;54.97;102716.28;5060003;28;20081;-83
2021/07/17 03:42:59;;;;;;;8.10;4.00;;;;;;;22.02;54.94;102711.94;5077931;28;20059;-85
2021/07/17 03:45:24;;;;;;;7.82;3.78;;;;;;;22.04;54.86;102708.44;5079009;28;20038;-85
2021/07/17 03:47:50;;;;;;;7.20;3.80;;;;;;;22.03;55.11;102721.53;5078950;28;20032;-84
2021/07/17 03:50:15;;;;;;;10.98;4.13;;;;;;;22.02;55.09;102720.66;5077564;28;20478;-85
2021/07/17 03:52:41;;;;;;;11.02;4.22;;;;;;;22.05;55.04;102711.91;5076760;28;20636;-86
2021/07/17 03:55:07;;;;;;;11.15;4.00;;;;;;;22.03;54.93;102709.28;5076586;28;20039;-85
2021/07/17 03:57:32;;;;;;;9.88;3.80;;;;;;;22.01;55.06;102718.91;5094481;28;20028;-85
2021/07/17 03:59:57;;;;;;;9.75;3.70;;;;;;;22.04;55.11;102715.44;5076284;28;20077;-85
2021/07/17 04:02:23;;;;;;;10.50;4.03;;;;;;;22.04;54.83;102718.91;5059613;28;20032;-84
2021/07/17 04:04:49;;;;;;;10.65;4.25;;;;;;;22.05;55.03;102722.41;5092917;28;20028;-84
2021/07/17 04:07:15;;;;;;;8.05;3.67;;;;;;;22.07;54.83;102724.16;5093138;28;20021;-86
2021/07/17 04:09:40;;;;;;;8.75;3.97;;;;;;;22.08;54.93;102719.78;5093029;28;20028;-85
2021/07/17 04:12:06;;;;;;;10.13;4.05;;;;;;;22.08;54.87;102723.31;5076078;28;20024;-85
2021/07/17 04:14:32;;;;;;;8.75;4.10;;;;;;;22.13;54.88;102731.16;5076041;28;20072;-87
2021/07/17 04:16:57;;;;;;;9.18;4.05;;;;;;;22.18;54.67;102726.78;5094053;28;20088;-86
2021/07/17 04:19:22;;;;;;;10.40;4.07;;;;;;;22.18;54.70;102725.03;5059247;28;20123;-86
2021/07/17 04:21:48;;;;;;;6.47;3.75;;;;;;;22.16;54.71;102729.41;5059110;28;20032;-86
2021/07/17 04:24:27;;;;;;;11.77;4.07;;;;;;;22.19;54.62;102725.94;5071018;28;20884;-86
2021/07/17 04:26:52;;;;;;;7.55;3.60;;;;;;;22.21;54.61;102726.81;5036338;28;20043;-85
2021/07/17 04:29:21;;;;;;;9.43;3.70;;;;;;;22.24;54.71;102734.72;5052839;28;20466;-86
2021/07/17 04:31:46;;;;;;;9.38;3.53;;;;;;;22.24;54.64;102737.31;5036231;28;20070;-85
2021/07/17 04:34:12;;;;;;;9.40;3.70;;;;;;;22.22;54.88;102733.81;5036487;28;20028;-85
2021/07/17 04:36:37;;;;;;;8.48;4.07;;;;;;;22.26;54.62;102732.97;5035966;28;20538;-85
2021/07/17 04:39:03;;;;;;;8.07;3.75;;;;;;;22.30;54.59;102732.09;5053012;28;20025;-85
2021/07/17 04:41:29;;;;;;;9.20;3.58;;;;;;;22.33;54.23;102742.56;5052622;28;20545;-85
2021/07/17 04:43:54;;;;;;;9.35;3.58;;;;;;;22.30;54.40;102739.09;5052596;28;20029;-85
2021/07/17 04:46:19;;;;;;;8.43;3.60;;;;;;;22.28;54.49;102744.31;5069250;28;20115;-85
2021/07/17 04:48:45;;;;;;;7.55;3.30;;;;;;;22.31;54.60;102744.31;5052665;28;20060;-86
2021/07/17 04:51:10;;;;;;;9.05;3.50;;;;;;;22.36;54.26;102736.44;5052316;28;20033;-85
2021/07/17 04:53:36;;;;;;;7.90;3.70;;;;;;;22.38;54.54;102739.94;5069067;28;20549;-85
2021/07/17 04:56:01;;;;;;;8.27;3.80;;;;;;;22.38;54.33;102738.22;5069471;28;20506;-84
2021/07/17 04:58:26;;;;;;;8.82;3.55;;;;;;;22.43;54.24;102742.56;5035504;28;20078;-85
2021/07/17 05:00:52;;;;;;;10.60;3.85;;;;;;;22.47;53.99;102744.31;5035876;28;20060;-86
2021/07/17 05:03:17;;;;;;;9.05;3.40;;;;;;;22.59;53.62;102737.31;5035380;28;20028;-85
2021/07/17 05:05:42;;;;;;;8.27;3.60;;;;;;;22.66;53.73;102740.81;5052142;28;20127;-83
2021/07/17 05:08:08;;;;;;;10.30;3.53;;;;;;;22.72;53.63;102743.44;5052115;28;20032;-85
2021/07/17 05:10:34;;;;;;;10.57;3.78;;;;;;;22.78;53.50;102745.19;5069867;28;20089;-85
2021/07/17 05:13:09;;;;;;;10.95;3.70;;;;;;;22.85;53.31;102748.69;5051971;28;20100;-85
2021/07/17 05:15:34;;;;;;;9.38;3.58;;;;;;;22.93;53.24;102746.91;5068409;28;20064;-85
2021/07/17 05:18:00;;;;;;;11.20;3.40;;;;;;;22.99;52.67;102745.16;5051852;28;20053;-85
2021/07/17 05:20:25;;;;;;;11.25;3.80;;;;;;;23.05;52.49;102740.81;5035102;28;20029;-85
2021/07/17 05:22:50;;;;;;;7.72;3.67;;;;;;;23.09;52.31;102745.16;5034626;28;20167;-86
2021/07/17 05:25:16;;;;;;;9.13;3.55;;;;;;;22.92;52.61;102743.41;5051713;28;20044;-85
2021/07/17 05:27:41;;;;;;;9.05;3.70;;;;;;;22.78;53.05;102738.19;5068237;28;20548;-86
2021/07/17 05:30:07;;;;;;;10.45;3.85;;;;;;;22.73;53.25;102736.44;5035154;28;20056;-86
2021/07/17 05:32:33;;;;;;;9.73;3.50;;;;;;;22.71;53.45;102746.06;5068178;28;20112;-84
2021/07/17 05:34:58;;;;;;;9.23;3.72;;;;;;;22.71;53.38;102743.44;5042924;28;20028;-86
2021/07/17 05:37:25;;;;;;;7.97;3.70;;;;;;;22.71;53.60;102744.34;5071422;28;20032;-85
2021/07/17 05:39:51;;;;;;;11.75;4.13;;;;;;;22.74;53.45;102749.56;5022079;28;20033;-88
2021/07/17 05:42:16;;;;;;;9.18;3.80;;;;;;;22.83;53.04;102751.31;5021661;28;20031;-86
2021/07/17 05:44:42;;;;;;;9.20;4.18;;;;;;;22.75;53.79;102755.69;5021910;28;20502;-87
2021/07/17 05:47:07;;;;;;;11.43;3.60;;;;;;;22.63;53.61;102755.72;5021820;28;20028;-86
2021/07/17 05:49:33;;;;;;;8.48;3.70;;;;;;;22.57;54.03;102754.81;5021420;28;20499;-87
2021/07/17 05:51:58;;;;;;;13.25;3.60;;;;;;;22.52;54.23;102759.19;5037873;28;20028;-86
2021/07/17 05:54:24;;;;;;;12.95;3.90;;;;;;;22.51;54.22;102767.06;5038007;28;20446;-88
2021/07/17 05:56:49;;;;;;;10.85;3.90;;;;;;;22.46;54.21;102764.44;5021450;28;20103;-88
2021/07/17 05:59:14;;;;;;;13.60;3.50;;;;;;;22.46;54.14;102764.44;5037861;28;20021;-88
2021/07/17 06:01:40;;;;;;;14.25;3.55;;;;;;;22.50;54.06;102766.19;5054368;28;20021;-88
2021/07/17 06:04:07;;;;;;;12.52;3.35;;;;;;;22.45;54.22;102772.31;5054477;28;20056;-88
2021/07/17 06:06:33;;;;;;;13.90;3.60;;;;;;;22.45;54.08;102777.53;5021870;28;20033;-88
2021/07/17 06:08:58;;;;;;;13.45;3.85;;;;;;;22.51;53.78;102767.94;5054471;28;20032;-89
2021/07/17 06:11:24;;;;;;;11.85;3.50;;;;;;;22.50;53.92;102773.19;5037556;28;20035;-88
2021/07/17 06:13:49;;;;;;;15.38;3.75;;;;;;;22.52;53.84;102772.31;5021169;28;20111;-88
2021/07/17 06:16:15;;;;;;;12.23;3.20;;;;;;;22.57;53.72;102773.19;5054218;28;20090;-87
2021/07/17 06:18:40;;;;;;;10.80;3.05;;;;;;;22.57;53.88;102767.06;5053997;28;20033;-87
2021/07/17 06:21:06;;;;;;;11.45;3.35;;;;;;;22.59;53.45;102775.81;5055374;28;20036;-87
2021/07/17 06:23:32;;;;;;;11.82;3.35;;;;;;;22.58;53.25;102774.06;5053819;28;20080;-86
2021/07/17 06:25:57;;;;;;;11.20;2.78;;;;;;;22.61;53.15;102770.59;5037908;28;20102;-89
2021/07/17 06:28:23;;;;;;;10.82;3.28;;;;;;;22.63;53.26;102774.94;5020970;28;20151;-87
2021/07/17 06:30:48;;;;;;;12.00;3.28;;;;;;;22.65;53.16;102780.22;5020778;28;20364;-85
2021/07/17 06:33:14;;;;;;;9.63;3.00;;;;;;;22.66;52.95;102790.69;5020743;28;20051;-86
2021/07/17 06:35:39;;;;;;;11.73;2.95;;;;;;;22.66;53.07;102787.19;5020882;28;20036;-85
2021/07/17 06:38:04;;;;;;;11.18;3.03;;;;;;;22.71;52.69;102794.19;5020747;28;20513;-86
2021/07/17 06:40:30;;;;;;;12.48;2.70;;;;;;;22.66;52.67;102795.06;5020684;28;20033;-89
2021/07/17 06:42:55;;;;;;;13.00;3.60;;;;;;;22.68;52.43;102794.19;5020755;28;20074;-86
2021/07/17 06:45:21;;;;;;;19.42;4.13;;;;;;;22.69;52.47;102790.69;5036630;28;20032;-85
2021/07/17 06:47:47;;;;;;;33.08;8.35;;;;;;;22.80;52.20;102778.44;5036281;28;20075;-77
2021/07/17 06:50:15;;;;;;;24.05;6.45;;;;;;;22.88;52.14;102791.53;5036857;28;20048;-79
2021/07/17 06:52:40;;;;;;;22.38;6.38;;;;;;;22.92;52.28;102787.19;5053281;28;20116;-79
2021/07/17 06:55:08;;;;;;;12.93;4.20;;;;;;;22.94;52.00;102788.91;5053505;28;20071;-79
2021/07/17 06:57:37;;;;;;;11.90;3.55;;;;;;;23.00;52.20;102790.72;5054482;28;20029;-81
2021/07/17 07:00:08;;;;;;;17.42;4.60;;;;;;;23.05;51.98;102799.44;5053340;28;20372;-78
2021/07/17 07:02:34;;;;;;;16.85;4.85;;;;;;;23.14;51.94;102798.53;5055078;28;20025;-82
2021/07/17 07:05:00;;;;;;;17.65;3.97;;;;;;;23.14;51.54;102801.19;5053992;28;20086;-80
2021/07/17 07:07:25;;;;;;;17.25;5.07;;;;;;;23.14;51.75;102807.28;5060758;28;20116;-81
2021/07/17 07:09:51;;;;;;;28.17;7.35;;;;;;;23.15;52.14;102795.94;5053331;28;20049;-81
2021/07/17 07:12:16;;;;;;;28.98;8.75;;;;;;;23.18;52.17;102810.81;5036700;28;20037;-81
2021/07/17 07:14:42;;;;;;;29.90;7.65;;;;;;;23.21;51.79;102800.28;5038756;28;20104;-81
2021/07/17 07:17:08;;;;;;;21.98;6.95;;;;;;;23.24;52.13;102805.53;5039827;28;20071;-80
2021/07/17 07:19:33;;;;;;;23.90;6.32;;;;;;;23.27;51.96;102807.28;5044777;28;20111;-80
2021/07/17 07:21:59;;;;;;;21.50;6.07;;;;;;;23.29;51.47;102803.75;5038313;28;20036;-80
2021/07/17 07:24:24;;;;;;;17.55;5.82;;;;;;;23.31;51.91;102816.91;5036549;28;20060;-80
2021/07/17 07:26:50;;;;;;;15.65;5.40;;;;;;;23.35;51.56;102819.53;5036336;28;20025;-81
2021/07/17 07:29:15;;;;;;;17.50;5.25;;;;;;;23.35;51.79;102818.66;5036199;28;20120;-80
2021/07/17 07:31:41;;;;;;;13.43;5.22;;;;;;;23.36;51.60;102813.38;5052936;28;20483;-80
2021/07/17 07:34:06;;;;;;;16.13;4.80;;;;;;;23.39;51.45;102817.78;5036097;28;20047;-80
2021/07/17 07:36:34;;;;;;;15.93;4.97;;;;;;;23.41;51.43;102816.88;5054184;28;20028;-80
2021/07/17 07:39:00;;;;;;;16.23;4.80;;;;;;;23.42;51.50;102813.34;5036345;28;20043;-79
2021/07/17 07:41:25;;;;;;;12.52;5.10;;;;;;;23.44;51.31;102820.38;5036609;28;20462;-79
2021/07/17 07:43:51;;;;;;;14.63;4.25;;;;;;;23.44;51.38;102817.75;5053052;28;20086;-80
2021/07/17 07:46:16;;;;;;;14.55;4.50;;;;;;;23.47;51.48;102815.97;5053400;28;20472;-80
2021/07/17 07:48:42;;;;;;;13.57;4.65;;;;;;;23.51;51.47;102824.72;5052847;28;20073;-80
2021/07/17 07:51:10;;;;;;;13.95;4.47;;;;;;;23.51;51.58;102828.22;5019725;28;20033;-79
2021/07/17 07:53:36;;;;;;;14.43;4.68;;;;;;;23.52;51.28;102814.22;5052842;28;20114;-80
2021/07/17 07:56:02;;;;;;;9.05;3.50;;;;;;;23.52;51.16;102824.72;5036309;28;20028;-80
2021/07/17 07:58:28;;;;;;;12.00;3.60;;;;;;;23.54;51.50;102814.19;5037200;28;20037;-80
2021/07/17 08:00:55;;;;;;;10.68;3.85;;;;;;;23.55;51.35;102813.34;5055784;28;20100;-81
2021/07/17 08:03:20;;;;;;;9.93;3.70;;;;;;;23.57;51.59;102817.69;5055085;28;20032;-80
2021/07/17 08:05:46;;;;;;;7.43;3.38;;;;;;;23.56;51.37;102818.59;5055912;28;20375;-81
2021/07/17 08:08:12;;;;;;;9.73;3.58;;;;;;;23.58;51.49;102816.84;5055959;28;20028;-80
2021/07/17 08:10:38;;;;;;;9.05;3.22;;;;;;;23.57;51.18;102811.56;5022633;28;20102;-81
2021/07/17 08:13:03;;;;;;;10.02;3.90;;;;;;;23.57;51.24;102817.69;5038985;28;20418;-81
2021/07/17 08:15:29;;;;;;;7.70;3.25;;;;;;;23.57;51.42;102807.19;5037010;28;20028;-81
2021/07/17 08:17:54;;;;;;;8.93;3.13;;;;;;;23.58;51.44;102814.22;5036521;28;20082;-81
2021/07/17 08:20:20;;;;;;;8.57;3.22;;;;;;;23.61;51.05;102815.94;5053819;28;20029;-80
2021/07/17 08:22:46;;;;;;;8.60;3.20;;;;;;;23.57;51.45;102812.44;5035654;28;20087;-81
2021/07/17 08:25:12;;;;;;;8.43;3.15;;;;;;;23.59;51.10;102815.94;5052622;28;20427;-80
2021/07/17 08:27:37;;;;;;;7.20;2.90;;;;;;;23.60;51.11;102824.69;5052820;28;20032;-82
2021/07/17 08:30:04;;;;;;;6.97;2.70;;;;;;;23.58;51.70;102823.81;5052137;28;20116;-81
2021/07/17 08:32:30;;;;;;;8.38;2.60;;;;;;;23.57;51.52;102820.31;5035442;28;20100;-82
2021/07/17 08:34:55;;;;;;;7.63;2.97;;;;;;;23.60;51.22;102829.94;5035390;28;20493;-81
2021/07/17 08:37:21;;;;;;;7.53;2.92;;;;;;;23.56;51.57;102821.22;5035569;28;20517;-81
2021/07/17 08:39:47;;;;;;;9.00;2.72;;;;;;;23.56;51.44;102818.59;5035778;28;20548;-82
2021/07/17 08:42:16;;;;;;;6.78;2.65;;;;;;;23.58;51.29;102821.19;5035222;28;20494;-82
2021/07/17 08:44:49;;;;;;;7.75;2.90;;;;;;;23.57;51.49;102830.84;5053073;28;20028;-81
2021/07/17 08:47:16;;;;;;;7.25;2.60;;;;;;;23.58;50.99;102827.34;5051685;28;20035;-81
2021/07/17 08:49:44;;;;;;;5.40;2.45;;;;;;;23.58;51.13;102829.06;5051688;28;20146;-81
2021/07/17 08:52:10;;;;;;;6.63;2.67;;;;;;;23.56;51.56;102826.47;5051616;28;20055;-81
2021/07/17 08:54:41;;;;;;;5.85;2.60;;;;;;;23.56;51.17;102828.19;5051715;28;20025;-82
2021/07/17 08:57:10;;;;;;;8.48;2.70;;;;;;;23.53;51.49;102831.72;5051626;28;20115;-81
2021/07/17 08:59:37;;;;;;;4.88;2.22;;;;;;;23.53;51.34;102829.09;5051636;28;20040;-81
2021/07/17 09:02:04;;;;;;;4.65;2.28;;;;;;;23.50;51.45;102837.00;5051995;28;20068;-81
2021/07/17 09:04:30;;;;;;;4.60;2.33;;;;;;;23.54;51.24;102833.50;5051593;28;20067;-80
2021/07/17 09:06:55;;;;;;;5.40;2.40;;;;;;;23.52;51.54;102834.38;5034994;28;20430;-80
2021/07/17 09:09:32;;;;;;;5.15;2.22;;;;;;;23.51;51.46;102827.34;5052684;28;20036;-80
2021/07/17 09:11:58;;;;;;;3.35;1.90;;;;;;;23.52;51.30;102827.34;5055381;28;20025;-80
2021/07/17 09:14:40;;;;;;;5.55;2.22;;;;;;;23.50;51.48;102829.13;5039054;28;20029;-80
2021/07/17 09:17:09;;;;;;;5.03;2.10;;;;;;;23.49;51.32;102829.97;5055262;28;20479;-80
2021/07/17 09:19:52;;;;;;;4.95;2.05;;;;;;;23.48;51.13;102817.72;5038487;28;20025;-81
2021/07/17 09:22:56;;;;;;;5.20;2.00;;;;;;;23.49;51.21;102814.22;5054841;28;20431;-79
2021/07/17 09:25:21;;;;;;;5.07;2.33;;;;;;;23.49;51.24;102806.31;5034854;28;20152;-80
2021/07/17 09:27:47;;;;;;;5.53;2.15;;;;;;;23.43;51.59;102814.25;5038460;28;20367;-82
2021/07/17 09:30:24;;;;;;;4.25;2.22;;;;;;;23.46;51.36;102818.63;5054924;28;20454;-80
2021/07/17 09:33:01;;;;;;;3.33;1.70;;;;;;;23.46;51.20;102814.22;5055052;28;20370;-80
2021/07/17 09:35:27;;;;;;;4.07;2.17;;;;;;;23.46;51.17;102824.75;5038701;28;20095;-81
2021/07/17 09:37:56;;;;;;;4.28;2.08;;;;;;;23.42;51.42;102817.75;5054768;28;20471;-80
2021/07/17 09:40:24;;;;;;;4.43;1.88;;;;;;;23.41;51.20;102809.00;5054732;28;20025;-80
2021/07/17 09:42:50;;;;;;;4.95;2.13;;;;;;;23.42;51.31;102805.47;5038128;28;20029;-80
2021/07/17 09:45:35;;;;;;;6.05;2.55;;;;;;;23.42;51.43;102808.09;5038202;28;20029;-80
2021/07/17 09:48:21;;;;;;;3.15;2.08;;;;;;;23.40;51.58;102811.63;5038727;28;20025;-80
2021/07/17 09:50:51;;;;;;;6.72;2.10;;;;;;;23.38;51.41;102813.38;5040878;28;20116;-80
2021/07/17 09:53:37;;;;;;;5.38;1.92;;;;;;;23.38;51.25;102808.13;5038526;28;20035;-81
2021/07/17 09:56:36;;;;;;;3.17;1.90;;;;;;;23.36;51.78;102812.50;5054564;28;20025;-79
2021/07/17 09:59:07;;;;;;;3.83;1.80;;;;;;;23.34;51.56;102809.00;5047185;28;20067;-80
2021/07/17 10:01:37;;;;;;;3.67;1.98;;;;;;;23.34;51.51;102812.53;5038108;28;20054;-81
2021/07/17 10:04:04;;;;;;;3.30;1.77;;;;;;;23.33;51.95;102808.13;5055687;28;20055;-81
2021/07/17 10:06:32;;;;;;;4.07;1.98;;;;;;;23.33;51.92;102809.91;5054413;28;20029;-80
2021/07/17 10:08:59;;;;;;;4.40;1.77;;;;;;;23.34;51.76;102817.78;5054317;28;20391;-80
2021/07/17 10:11:27;;;;;;;3.75;2.08;;;;;;;23.31;51.79;102815.16;5054438;28;20025;-80
2021/07/17 10:13:53;;;;;;;4.03;2.17;;;;;;;23.32;51.51;102822.16;5054208;28;20048;-81
2021/07/17 10:16:21;;;;;;;2.97;2.03;;;;;;;23.29;51.67;102811.66;5021226;28;20052;-80
2021/07/17 10:18:49;;;;;;;4.00;1.77;;;;;;;23.29;51.85;102810.78;5037771;28;20115;-81
2021/07/17 10:21:15;;;;;;;2.97;1.60;;;;;;;23.30;51.79;102812.50;5037813;28;20467;-81
2021/07/17 10:23:41;;;;;;;4.85;1.98;;;;;;;23.28;51.61;102815.16;5037185;28;20044;-82
2021/07/17 10:26:08;;;;;;;4.47;2.30;;;;;;;23.28;52.04;102811.63;5037512;28;20117;-81
2021/07/17 10:28:34;;;;;;;2.95;1.90;;;;;;;23.27;52.00;102805.53;5054033;28;20017;-80
2021/07/17 10:31:00;;;;;;;3.53;1.98;;;;;;;23.28;51.78;102809.91;5037451;28;20025;-81
2021/07/17 10:33:26;;;;;;;4.05;1.92;;;;;;;23.29;51.70;102802.91;5037519;28;20029;-81
2021/07/17 10:35:54;;;;;;;4.07;2.00;;;;;;;23.28;51.23;102801.13;5053748;28;20032;-81
2021/07/17 10:38:21;;;;;;;3.72;1.70;;;;;;;23.29;50.95;102803.75;5053774;28;20123;-81
2021/07/17 10:40:48;;;;;;;3.58;1.65;;;;;;;23.30;51.53;102805.53;5053813;28;20024;-81
2021/07/17 10:43:14;;;;;;;4.15;2.15;;;;;;;23.30;51.30;102805.53;5053725;28;20048;-82
2021/07/17 10:45:46;;;;;;;2.88;1.60;;;;;;;23.27;51.48;102805.53;5037031;28;20479;-81
2021/07/17 10:48:28;;;;;;;3.72;1.65;;;;;;;23.26;51.44;102803.78;5037365;28;20059;-81
2021/07/17 10:50:56;;;;;;;2.42;1.55;;;;;;;23.28;51.48;102804.66;5053488;28;20039;-81
2021/07/17 10:53:56;;;;;;;5.28;2.10;;;;;;;23.28;51.13;102803.75;5053260;28;20068;-81
2021/07/17 10:56:27;;;;;;;2.85;1.50;;;;;;;23.28;51.32;102806.38;5054837;28;20458;-81
2021/07/17 10:59:13;;;;;;;2.95;1.70;;;;;;;23.27;51.14;102805.53;5053366;28;20029;-80
2021/07/17 11:01:56;;;;;;;2.45;1.48;;;;;;;23.28;51.03;102802.03;5049984;28;20037;-81
2021/07/17 11:04:44;;;;;;;3.42;1.80;;;;;;;23.28;51.53;102798.50;5061331;28;20059;-80
2021/07/17 11:07:16;;;;;;;2.35;1.70;;;;;;;23.28;51.38;102806.38;5066389;28;20128;-81
2021/07/17 11:10:03;;;;;;;3.25;1.65;;;;;;;23.28;51.08;102795.88;5058698;28;20060;-80
2021/07/17 11:12:31;;;;;;;4.93;1.90;;;;;;;23.28;51.68;102802.03;5055175;28;20071;-81
2021/07/17 11:15:20;;;;;;;3.65;2.10;;;;;;;23.28;51.45;102802.03;5038066;28;20029;-81
2021/07/17 11:17:49;;;;;;;3.92;1.50;;;;;;;23.29;51.12;102800.28;5052968;28;20021;-80
2021/07/17 11:20:18;;;;;;;2.20;1.38;;;;;;;23.30;51.51;102804.63;5052932;28;20094;-81
2021/07/17 11:22:46;;;;;;;3.08;1.73;;;;;;;23.29;51.56;102800.28;5035963;28;20059;-81